Time;durP1;ratioP1;P1;durP2;ratioP2;P2;SDS_P1;SDS_P2;PMS_P1;PMS_P2;Temp;Humidity;BMP_temperature;BMP_pressure;BME280_temperature;BME280_humidity;BME280_pressure;Samples;Min_cycle;Max_cycle;Signal;HPM_P1;HPM_P2
2021/10/05 00:02:32;;;;;;;7.07;5.82;;;;;;;12.10;85.02;100053.25;10420016;28;20042;-71
2021/10/05 00:07:34;;;;;;;5.60;5.10;;;;;;;12.03;85.87;100054.38;10419549;28;20061;-70
2021/10/05 00:12:37;;;;;;;6.03;5.43;;;;;;;12.19;84.77;100052.03;10404141;28;20465;-70
2021/10/05 00:17:38;;;;;;;6.93;6.25;;;;;;;12.14;85.08;100039.97;10418401;28;20049;-71
2021/10/05 00:22:41;;;;;;;7.38;6.00;;;;;;;12.34;83.42;100046.16;10418595;28;20128;-71
2021/10/05 00:27:43;;;;;;;6.35;5.70;;;;;;;12.44;83.07;100037.91;10400801;28;20059;-70
2021/10/05 00:32:44;;;;;;;5.82;4.97;;;;;;;12.34;83.79;100029.50;10400021;28;20050;-70
2021/10/05 00:37:46;;;;;;;5.68;5.18;;;;;;;12.59;82.28;100029.41;10402195;28;20072;-70
2021/10/05 00:42:48;;;;;;;6.32;5.10;;;;;;;12.39;82.81;100030.19;10417110;28;20056;-70
2021/10/05 00:47:50;;;;;;;5.00;4.43;;;;;;;12.25;84.28;100027.22;10400113;28;20045;-70
2021/10/05 00:52:52;;;;;;;5.95;5.10;;;;;;;12.47;82.01;100007.00;10400632;28;20057;-70
2021/10/05 00:57:54;;;;;;;4.75;4.20;;;;;;;12.25;84.12;99998.22;10401372;28;20046;-71
2021/10/05 01:02:57;;;;;;;5.10;4.68;;;;;;;12.20;84.02;99987.03;10399100;28;20053;-71
2021/10/05 01:08:00;;;;;;;4.78;4.38;;;;;;;12.20;84.53;99982.59;10399879;28;20045;-71
2021/10/05 01:13:02;;;;;;;5.72;4.65;;;;;;;12.49;83.34;99991.16;10416679;28;20415;-70
2021/10/05 01:18:04;;;;;;;4.97;4.47;;;;;;;12.43;83.69;99994.00;10402332;28;20049;-70
2021/10/05 01:23:05;;;;;;;4.55;4.15;;;;;;;12.36;84.57;99980.22;10417294;28;20065;-70
2021/10/05 01:28:07;;;;;;;6.00;4.35;;;;;;;12.52;82.99;99981.31;10416675;28;20053;-70
2021/10/05 01:33:09;;;;;;;5.60;4.07;;;;;;;12.82;81.92;99970.44;10423383;28;20037;-70
2021/10/05 01:38:10;;;;;;;5.53;3.95;;;;;;;12.79;81.71;99965.28;10424827;28;20044;-70
2021/10/05 01:43:12;;;;;;;4.82;3.95;;;;;;;12.43;84.08;99951.84;10425513;28;20045;-70
2021/10/05 01:48:14;;;;;;;4.90;4.03;;;;;;;12.55;83.61;99946.06;10437695;22;20071;-72
2021/10/05 01:53:15;;;;;;;4.82;4.32;;;;;;;12.34;85.95;99927.56;10421763;28;20368;-71
2021/10/05 01:58:17;;;;;;;5.28;4.18;;;;;;;12.19;86.69;99903.63;10422445;28;20045;-71
2021/10/05 02:03:19;;;;;;;5.85;3.83;;;;;;;12.23;86.67;99913.13;10404028;28;20046;-73
2021/10/05 02:08:21;;;;;;;5.15;3.67;;;;;;;12.62;85.02;99900.94;10421544;28;20041;-71
2021/10/05 02:13:22;;;;;;;4.82;3.63;;;;;;;12.58;84.65;99896.69;10421341;28;20044;-71
2021/10/05 02:18:24;;;;;;;4.10;3.70;;;;;;;12.22;87.50;99870.09;10421483;28;20467;-72
2021/10/05 02:23:37;;;;;;;13.15;4.00;;;;;;;12.28;87.31;99861.94;10420589;28;20045;-73
2021/10/05 02:28:38;;;;;;;4.40;4.10;;;;;;;12.10;89.27;99849.53;10403006;28;20037;-73
2021/10/05 02:33:40;;;;;;;4.43;3.80;;;;;;;12.02;90.50;99835.78;10403045;28;20407;-72
2021/10/05 02:38:42;;;;;;;5.00;4.30;;;;;;;12.08;90.29;99823.22;10420849;28;20048;-72
2021/10/05 02:43:44;;;;;;;5.80;4.07;;;;;;;12.07;90.08;99813.59;10420498;28;20044;-72
2021/10/05 02:48:46;;;;;;;7.85;4.95;;;;;;;12.11;89.76;99807.28;10419666;28;20049;-72
2021/10/05 02:53:47;;;;;;;5.15;3.92;;;;;;;12.14;89.19;99798.41;10419385;28;20045;-72
2021/10/05 02:58:49;;;;;;;4.75;4.35;;;;;;;11.98;90.33;99786.78;10421370;28;20508;-71
2021/10/05 03:03:50;;;;;;;5.45;4.43;;;;;;;12.04;90.08;99768.09;10419252;28;20042;-72
2021/10/05 03:08:54;;;;;;;6.95;5.78;;;;;;;11.83;91.36;99754.91;10419431;28;20491;-72
2021/10/05 03:13:56;;;;;;;7.65;5.15;;;;;;;12.16;89.39;99746.50;10400686;28;20053;-72
2021/10/05 03:18:58;;;;;;;6.40;5.07;;;;;;;12.22;88.70;99738.34;10418388;28;20100;-72
2021/10/05 03:23:59;;;;;;;6.90;6.18;;;;;;;11.89;90.69;99724.81;10401182;28;20408;-72
2021/10/05 03:29:02;;;;;;;6.82;6.20;;;;;;;11.79;91.56;99732.22;10418447;28;20048;-72
2021/10/05 03:34:04;;;;;;;6.70;5.97;;;;;;;11.84;91.31;99718.88;10399978;28;20141;-71
2021/10/05 03:39:05;;;;;;;6.75;6.15;;;;;;;11.72;92.12;99712.31;10417924;28;20095;-72
2021/10/05 03:44:07;;;;;;;6.80;6.10;;;;;;;11.83;91.55;99698.75;10399956;28;20049;-71
2021/10/05 03:49:08;;;;;;;9.30;6.65;;;;;;;12.01;89.59;99691.84;10399968;28;20046;-72
2021/10/05 03:54:10;;;;;;;6.85;6.20;;;;;;;11.77;91.42;99672.63;10399192;28;20045;-72
2021/10/05 03:59:15;;;;;;;9.32;6.25;;;;;;;11.82;90.37;99673.28;10399113;28;20045;-71
2021/10/05 04:04:17;;;;;;;6.00;5.60;;;;;;;11.61;90.61;99659.25;10417604;28;20037;-72
2021/10/05 04:09:18;;;;;;;6.85;5.82;;;;;;;11.53;90.83;99662.22;10417467;28;20050;-71
2021/10/05 04:14:20;;;;;;;6.63;6.05;;;;;;;11.53;90.65;99659.56;10416689;28;20037;-71
2021/10/05 04:19:22;;;;;;;6.63;6.03;;;;;;;11.47;90.49;99635.31;10417096;28;20168;-72
2021/10/05 04:24:24;;;;;;;6.40;5.82;;;;;;;11.37;91.61;99625.13;10397927;28;20055;-72
2021/10/05 04:29:26;;;;;;;7.13;6.03;;;;;;;11.65;90.39;99631.03;10398397;28;20065;-72
2021/10/05 04:34:27;;;;;;;8.32;6.75;;;;;;;11.57;90.52;99621.69;10416453;28;20041;-72
2021/10/05 04:39:29;;;;;;;7.40;6.70;;;;;;;11.40;92.35;99611.00;10416515;28;20053;-72
2021/10/05 04:44:30;;;;;;;7.10;6.40;;;;;;;11.39;92.49;99618.97;10415578;28;20395;-72
2021/10/05 04:49:32;;;;;;;6.45;5.90;;;;;;;11.54;91.90;99606.00;10416035;28;20042;-73
2021/10/05 04:54:34;;;;;;;11.32;6.50;;;;;;;11.48;93.64;99592.25;10397542;28;20044;-72
2021/10/05 04:59:36;;;;;;;7.00;6.47;;;;;;;11.53;93.63;99582.38;10416298;28;20052;-71
2021/10/05 05:04:38;;;;;;;8.23;7.43;;;;;;;11.44;93.39;99567.84;10415848;28;20103;-70
2021/10/05 05:09:39;;;;;;;13.70;12.70;;;;;;;11.63;92.96;99560.00;10423882;28;20045;-70
2021/10/05 05:14:41;;;;;;;13.80;12.48;;;;;;;11.59;93.22;99554.00;10425209;28;20080;-70
2021/10/05 05:19:43;;;;;;;8.82;8.02;;;;;;;11.49;93.83;99536.91;10423539;28;20041;-69
2021/10/05 05:24:44;;;;;;;7.35;6.55;;;;;;;11.52;93.96;99541.19;10423072;28;20080;-70
2021/10/05 05:29:46;;;;;;;7.13;6.57;;;;;;;11.47;94.68;99535.28;10423868;28;20480;-70
2021/10/05 05:34:47;;;;;;;6.95;6.32;;;;;;;11.82;92.19;99538.97;10404672;28;20050;-71
2021/10/05 05:39:49;;;;;;;10.95;8.25;;;;;;;11.50;95.16;99525.47;10422473;28;20049;-70
2021/10/05 05:44:52;;;;;;;7.45;6.75;;;;;;;11.50;95.95;99527.25;10424451;28;20087;-71
2021/10/05 05:49:54;;;;;;;8.60;7.80;;;;;;;11.56;96.19;99537.53;10404826;28;20049;-70
2021/10/05 05:54:55;;;;;;;11.80;8.68;;;;;;;11.78;93.86;99527.75;10405063;28;20495;-71
2021/10/05 05:59:58;;;;;;;8.30;7.32;;;;;;;11.69;94.82;99509.72;10404842;28;20092;-71
2021/10/05 06:05:00;;;;;;;8.00;7.20;;;;;;;11.72;94.62;99500.81;10422435;28;20422;-70
2021/10/05 06:10:03;;;;;;;14.18;8.70;;;;;;;11.66;95.25;99501.09;10404401;28;20477;-70
2021/10/05 06:15:06;;;;;;;8.05;7.25;;;;;;;11.68;95.38;99496.63;10423212;28;20045;-70
2021/10/05 06:20:11;;;;;;;7.85;7.15;;;;;;;11.89;93.68;99493.03;10421485;28;20108;-71
2021/10/05 06:25:16;;;;;;;6.40;5.78;;;;;;;11.92;92.93;99492.06;10421217;28;20046;-70
2021/10/05 06:30:18;;;;;;;6.82;6.32;;;;;;;12.16;90.65;99500.59;10421521;28;20038;-71
2021/10/05 06:35:28;;;;;;;8.07;6.80;;;;;;;12.13;91.73;99477.91;10421769;28;20224;-70
2021/10/05 06:40:32;;;;;;;7.57;6.95;;;;;;;11.94;92.82;99475.25;10421381;28;20049;-72
2021/10/05 06:45:34;;;;;;;8.18;7.38;;;;;;;12.03;94.28;99458.16;10421435;28;20057;-71
2021/10/05 06:50:41;;;;;;;9.00;8.15;;;;;;;12.03;94.42;99456.38;10421015;28;20049;-70
2021/10/05 06:55:44;;;;;;;9.88;8.25;;;;;;;12.07;94.19;99452.69;10420303;28;20107;-71
2021/10/05 07:00:45;;;;;;;8.50;7.70;;;;;;;12.18;93.68;99459.25;10420418;28;20041;-70
2021/10/05 07:05:47;;;;;;;8.70;7.90;;;;;;;12.45;93.58;99449.16;10420406;28;20042;-70
2021/10/05 07:10:49;;;;;;;15.75;13.55;;;;;;;12.55;92.49;99437.22;10419784;28;20179;-70
2021/10/05 07:15:50;;;;;;;10.10;8.23;;;;;;;12.74;91.43;99442.44;10418911;28;20045;-70
2021/10/05 07:20:52;;;;;;;8.07;7.47;;;;;;;12.86;91.18;99433.91;10418639;28;20059;-70
2021/10/05 07:25:54;;;;;;;8.63;7.82;;;;;;;12.92;91.65;99446.78;10402609;28;20065;-71
2021/10/05 07:30:55;;;;;;;8.18;7.47;;;;;;;12.90;90.62;99442.53;10419164;28;20045;-71
2021/10/05 07:36:17;;;;;;;8.45;7.72;;;;;;;12.73;92.01;99427.53;10405676;28;20050;-70
2021/10/05 07:41:18;;;;;;;9.65;7.97;;;;;;;13.01;89.22;99427.81;10420418;28;20045;-71
2021/10/05 07:46:21;;;;;;;9.27;8.45;;;;;;;13.09;88.85;99407.19;10434251;22;20109;-71
2021/10/05 07:51:23;;;;;;;8.40;7.70;;;;;;;12.97;89.55;99410.47;10419069;28;20092;-71
2021/10/05 07:56:25;;;;;;;12.70;8.35;;;;;;;12.92;90.55;99404.56;10384114;28;20057;-71
2021/10/05 08:01:27;;;;;;;9.70;8.90;;;;;;;13.02;90.41;99383.84;10419740;28;20141;-71
2021/10/05 08:06:29;;;;;;;8.45;7.70;;;;;;;13.02;90.98;99381.22;10419722;28;20129;-71
2021/10/05 08:11:30;;;;;;;8.43;7.57;;;;;;;13.31;88.57;99362.06;10417826;28;20049;-71
2021/10/05 08:16:32;;;;;;;7.68;7.00;;;;;;;13.45;88.46;99382.44;10417664;28;20057;-71
2021/10/05 08:21:34;;;;;;;11.20;7.38;;;;;;;13.48;88.97;99352.41;10400842;28;20052;-72
2021/10/05 08:26:36;;;;;;;9.30;8.50;;;;;;;13.45;87.49;99342.84;10402023;28;20059;-71
2021/10/05 08:31:37;;;;;;;9.00;8.02;;;;;;;13.68;86.90;99360.09;10417975;28;20046;-71
2021/10/05 08:36:39;;;;;;;11.25;8.88;;;;;;;13.65;87.34;99349.69;10417524;28;20041;-70
2021/10/05 08:41:44;;;;;;;13.85;9.38;;;;;;;13.78;86.39;99347.22;10401530;28;20083;-70
2021/10/05 08:46:46;;;;;;;8.98;8.13;;;;;;;13.91;85.94;99347.38;10420994;28;20107;-71
2021/10/05 08:51:49;;;;;;;8.82;8.02;;;;;;;14.29;84.41;99353.09;10417865;28;20072;-71
2021/10/05 08:56:51;;;;;;;9.82;8.93;;;;;;;14.32;84.84;99351.16;10381142;28;20112;-71
2021/10/05 09:01:53;;;;;;;11.07;9.80;;;;;;;14.64;81.83;99332.56;10366308;28;20037;-71
2021/10/05 09:06:55;;;;;;;10.48;8.73;;;;;;;14.42;81.95;99318.88;10404506;28;20126;-72
2021/10/05 09:11:57;;;;;;;11.52;10.38;;;;;;;14.64;80.26;99314.91;10406512;28;20045;-71
2021/10/05 09:16:58;;;;;;;9.90;9.05;;;;;;;14.27;83.51;99318.00;10376191;28;20057;-72
2021/10/05 09:22:00;;;;;;;13.23;11.45;;;;;;;14.10;85.53;99311.03;10377806;28;20045;-71
2021/10/05 09:27:05;;;;;;;11.18;10.18;;;;;;;14.38;84.33;99308.47;10381060;28;20168;-72
2021/10/05 09:32:09;;;;;;;11.63;10.43;;;;;;;14.83;81.22;99306.72;10419397;28;20132;-72
2021/10/05 09:37:26;;;;;;;11.93;10.70;;;;;;;14.86;82.04;99298.56;10398477;28;20466;-71
2021/10/05 09:42:30;;;;;;;;;;;;;;;14.93;81.77;99296.41;10400074;28;20063;-72
2021/10/05 09:47:37;;;;;;;11.73;10.52;;;;;;;15.22;81.57;99301.69;10386876;28;20394;-72
2021/10/05 09:52:47;;;;;;;12.85;10.82;;;;;;;15.21;80.60;99297.34;10381133;28;20050;-72
2021/10/05 09:57:50;;;;;;;13.13;11.32;;;;;;;15.17;81.27;99299.34;10382986;28;20042;-72
2021/10/05 10:02:52;;;;;;;13.38;10.38;;;;;;;15.43;81.47;99291.56;10400449;28;20437;-72
2021/10/05 10:07:57;;;;;;;12.55;11.27;;;;;;;15.57;80.64;99275.63;10380271;28;20053;-72
2021/10/05 10:13:04;;;;;;;11.98;10.95;;;;;;;15.83;79.77;99271.31;10384860;28;20105;-72
2021/10/05 10:18:11;;;;;;;12.27;11.10;;;;;;;16.00;79.21;99273.72;10383789;28;20054;-72
2021/10/05 10:23:18;;;;;;;;;;;;;;;16.39;76.53;99262.25;10365762;28;20574;-72
2021/10/05 10:28:24;;;;;;;;;;;;;;;16.40;76.96;99255.13;10364917;28;19921;-72
2021/10/05 10:33:28;;;;;;;12.07;10.98;;;;;;;16.81;76.20;99246.16;10382008;28;20027;-72
2021/10/05 10:38:31;;;;;;;12.90;11.73;;;;;;;16.81;76.16;99248.78;10384481;28;20046;-72
2021/10/05 10:43:32;;;;;;;14.18;12.43;;;;;;;16.95;74.46;99250.47;10363578;28;20080;-72
2021/10/05 10:48:37;;;;;;;13.45;12.55;;;;;;;16.76;75.91;99242.97;10381673;28;20046;-72
2021/10/05 10:53:41;;;;;;;14.98;12.95;;;;;;;17.21;73.65;99233.53;10380194;28;20061;-73
2021/10/05 10:58:45;;;;;;;13.68;12.57;;;;;;;16.89;74.77;99243.81;10381912;28;20446;-73
2021/10/05 11:03:49;;;;;;;15.07;13.63;;;;;;;17.05;74.08;99243.59;10379615;28;20042;-73
2021/10/05 11:08:58;;;;;;;13.20;12.07;;;;;;;16.95;75.88;99239.88;10380836;28;20077;-73
2021/10/05 11:14:01;;;;;;;14.48;13.48;;;;;;;16.98;76.03;99247.63;10380863;28;20111;-73
2021/10/05 11:19:17;;;;;;;15.25;14.00;;;;;;;17.34;75.04;99239.66;10383246;28;20103;-73
2021/10/05 11:24:19;;;;;;;14.07;13.07;;;;;;;17.25;75.67;99248.31;10363125;28;20049;-73
2021/10/05 11:29:26;;;;;;;17.30;15.90;;;;;;;17.15;76.07;99255.25;10380774;28;20050;-72
2021/10/05 11:34:28;;;;;;;19.00;17.45;;;;;;;16.89;77.67;99238.50;10379863;28;20483;-73
2021/10/05 11:39:30;;;;;;;16.85;15.70;;;;;;;16.71;79.21;99243.25;10381400;28;20050;-73
2021/10/05 11:44:38;;;;;;;17.13;15.88;;;;;;;16.72;79.65;99254.72;10382502;28;20038;-74
2021/10/05 11:49:46;;;;;;;17.45;16.05;;;;;;;16.91;78.33;99257.84;10363397;28;20069;-74
2021/10/05 11:54:49;;;;;;;15.60;14.38;;;;;;;16.67;80.60;99259.50;10379859;28;20545;-74
2021/10/05 12:00:04;;;;;;;18.20;16.67;;;;;;;16.61;81.75;99272.25;10379198;28;20056;-74
2021/10/05 12:05:22;;;;;;;15.80;14.43;;;;;;;16.64;81.29;99280.00;10363700;28;20046;-74
2021/10/05 12:10:24;;;;;;;19.60;18.35;;;;;;;16.35;84.52;99273.16;10378321;28;20046;-74
2021/10/05 12:15:30;;;;;;;19.15;17.65;;;;;;;16.26;85.18;99284.41;10378276;28;20455;-73
2021/10/05 12:20:33;;;;;;;22.05;20.45;;;;;;;16.16;87.46;99286.81;10379854;28;20503;-73
2021/10/05 12:25:40;;;;;;;18.70;17.08;;;;;;;15.86;89.90;99282.59;10363156;28;20109;-72
2021/10/05 12:30:41;;;;;;;16.20;15.00;;;;;;;15.82;91.19;99289.03;10377673;28;20100;-72
2021/10/05 12:35:47;;;;;;;14.55;13.15;;;;;;;15.93;89.68;99293.63;10360363;28;20035;-72
2021/10/05 12:41:46;;;;;;;13.27;12.23;;;;;;;15.88;88.70;99314.28;10377643;28;20064;-72
2021/10/05 12:46:56;;;;;;;13.20;12.30;;;;;;;15.60;89.59;99321.31;10366016;28;20078;-72
2021/10/05 12:51:58;;;;;;;11.88;11.07;;;;;;;15.42;88.47;99327.78;10377045;28;20209;-72
2021/10/05 12:57:02;;;;;;;10.85;10.05;;;;;;;15.06;89.52;99315.91;10359580;28;20435;-72
2021/10/05 13:02:04;;;;;;;8.57;7.97;;;;;;;15.14;87.65;99329.50;10377113;28;20050;-73
2021/10/05 13:07:06;;;;;;;6.38;5.95;;;;;;;15.16;84.54;99331.22;10377910;28;20462;-72
2021/10/05 13:12:08;;;;;;;6.60;6.10;;;;;;;14.76;85.37;99344.22;10379710;28;20038;-71
2021/10/05 13:17:09;;;;;;;6.28;5.88;;;;;;;14.60;87.38;99336.34;10376965;28;20550;-72
2021/10/05 13:22:11;;;;;;;5.90;5.50;;;;;;;14.69;86.61;99329.66;10377044;28;20046;-72
2021/10/05 13:27:13;;;;;;;6.82;6.32;;;;;;;14.70;86.24;99328.69;10380571;28;20103;-73
2021/10/05 13:32:14;;;;;;;7.25;6.75;;;;;;;14.62;88.91;99324.72;10403416;28;20049;-73
2021/10/05 13:37:16;;;;;;;5.78;5.38;;;;;;;14.86;85.55;99335.63;10384370;28;20037;-73
2021/10/05 13:42:17;;;;;;;6.95;6.45;;;;;;;14.61;87.57;99338.91;10400788;28;20042;-73
2021/10/05 13:47:19;;;;;;;6.00;5.70;;;;;;;14.62;88.10;99353.81;10397893;23;20041;-73
2021/10/05 13:52:21;;;;;;;5.82;5.43;;;;;;;14.89;85.12;99356.63;10396574;28;20068;-74
2021/10/05 13:57:22;;;;;;;5.35;5.05;;;;;;;14.69;85.46;99343.72;10382997;28;20160;-73
2021/10/05 14:02:26;;;;;;;5.95;5.47;;;;;;;14.64;87.73;99351.09;10374384;28;20141;-73
2021/10/05 14:07:27;;;;;;;4.40;4.10;;;;;;;15.11;82.65;99342.09;10382019;28;20053;-74
2021/10/05 14:12:29;;;;;;;3.90;3.60;;;;;;;14.92;83.95;99347.66;10374322;28;20483;-72
2021/10/05 14:17:33;;;;;;;3.15;2.95;;;;;;;15.06;82.23;99350.31;10380503;28;20042;-73
2021/10/05 14:22:35;;;;;;;3.10;2.90;;;;;;;14.85;83.26;99344.50;10374892;28;20487;-73
2021/10/05 14:27:36;;;;;;;2.50;2.30;;;;;;;15.08;81.67;99360.78;10380471;28;20045;-74
2021/10/05 14:32:38;;;;;;;2.67;2.47;;;;;;;14.96;83.43;99350.94;10375618;28;20049;-74
2021/10/05 14:37:40;;;;;;;4.13;3.72;;;;;;;14.83;83.93;99350.81;10379471;28;20498;-72
2021/10/05 14:42:42;;;;;;;3.15;2.95;;;;;;;14.79;83.73;99349.34;10379990;28;20076;-74
2021/10/05 14:47:43;;;;;;;3.10;2.85;;;;;;;14.87;82.27;99361.16;10379595;28;20097;-74
2021/10/05 14:52:45;;;;;;;2.72;2.53;;;;;;;14.80;84.03;99351.03;10378865;28;20064;-74
2021/10/05 14:57:47;;;;;;;2.80;2.60;;;;;;;14.80;83.52;99353.69;10375117;28;20108;-73
2021/10/05 15:02:48;;;;;;;2.67;2.47;;;;;;;14.50;84.16;99354.53;10379112;28;20049;-72
2021/10/05 15:07:50;;;;;;;2.80;2.60;;;;;;;14.44;86.03;99344.31;10378547;28;20057;-73
2021/10/05 15:12:52;;;;;;;2.92;2.33;;;;;;;14.70;84.42;99353.38;10379074;28;20439;-73
2021/10/05 15:17:54;;;;;;;2.03;1.92;;;;;;;14.55;84.80;99367.50;10378143;28;20050;-73
2021/10/05 15:22:56;;;;;;;2.15;2.00;;;;;;;14.58;85.31;99373.47;10358805;28;20050;-74
2021/10/05 15:27:58;;;;;;;2.80;2.60;;;;;;;14.51;86.50;99371.25;10377753;28;20056;-74
2021/10/05 15:32:59;;;;;;;3.22;3.03;;;;;;;14.42;86.84;99377.06;10377469;28;20235;-73
2021/10/05 15:38:01;;;;;;;2.50;2.40;;;;;;;14.38;86.71;99371.09;10377980;28;20072;-74
2021/10/05 15:43:03;;;;;;;2.75;2.55;;;;;;;14.35;87.66;99360.72;10377115;28;20042;-74
2021/10/05 15:48:05;;;;;;;2.33;2.22;;;;;;;14.44;87.78;99365.47;10374656;28;20136;-72
2021/10/05 15:53:06;;;;;;;3.20;3.00;;;;;;;14.55;87.61;99360.41;10367700;28;20051;-72
2021/10/05 15:58:08;;;;;;;3.20;3.00;;;;;;;14.48;87.49;99366.13;10367523;28;20100;-73
2021/10/05 16:03:10;;;;;;;4.13;3.83;;;;;;;14.35;88.04;99366.00;10351460;28;20222;-73
2021/10/05 16:08:11;;;;;;;6.18;4.28;;;;;;;14.61;85.85;99377.72;10367652;28;20054;-74
2021/10/05 16:13:13;;;;;;;4.75;4.35;;;;;;;14.57;85.81;99382.34;10376044;28;20117;-74
2021/10/05 16:18:15;;;;;;;4.22;3.92;;;;;;;14.53;86.02;99395.84;10375782;28;20050;-74
2021/10/05 16:23:16;;;;;;;4.57;4.28;;;;;;;14.47;85.65;99397.00;10375201;28;20072;-73
2021/10/05 16:28:19;;;;;;;5.65;5.15;;;;;;;14.37;86.49;99395.81;10375255;28;20042;-72
2021/10/05 16:33:21;;;;;;;4.55;4.25;;;;;;;14.60;84.52;99402.47;10376201;28;20399;-71
2021/10/05 16:38:22;;;;;;;4.80;4.40;;;;;;;14.41;86.13;99407.09;10375756;28;20096;-73
2021/10/05 16:43:24;;;;;;;5.13;4.72;;;;;;;14.21;87.73;99403.81;10375922;28;20050;-72
2021/10/05 16:48:25;;;;;;;4.38;3.95;;;;;;;14.13;88.67;99403.38;10375648;28;20045;-73
2021/10/05 16:53:27;;;;;;;6.05;5.65;;;;;;;14.05;89.20;99401.16;10376165;28;20045;-73
2021/10/05 16:58:29;;;;;;;5.88;5.47;;;;;;;14.03;89.25;99404.81;10369579;28;20049;-72
2021/10/05 17:03:30;;;;;;;5.45;5.15;;;;;;;13.99;89.78;99408.56;10382565;28;20073;-72
2021/10/05 17:08:32;;;;;;;4.75;4.45;;;;;;;13.96;89.71;99409.59;10382525;28;20450;-71
2021/10/05 17:13:33;;;;;;;5.75;5.07;;;;;;;13.98;89.82;99406.84;10382039;28;20092;-72
2021/10/05 17:18:35;;;;;;;5.13;4.82;;;;;;;13.98;88.84;99397.13;10382724;28;20388;-72
2021/10/05 17:23:36;;;;;;;4.80;4.50;;;;;;;14.01;90.14;99388.19;10376962;28;20054;-73
2021/10/05 17:28:38;;;;;;;5.10;4.70;;;;;;;14.03;90.35;99376.63;10377850;28;20056;-72
2021/10/05 17:33:39;;;;;;;5.50;5.00;;;;;;;14.27;88.99;99387.56;10382272;28;20042;-72
2021/10/05 17:38:41;;;;;;;5.10;4.20;;;;;;;14.07;89.73;99386.06;10382673;28;20057;-73
2021/10/05 17:43:43;;;;;;;5.07;4.68;;;;;;;14.14;89.86;99390.06;10377249;28;20050;-73
2021/10/05 17:48:44;;;;;;;4.60;4.30;;;;;;;14.16;89.39;99394.41;10381955;28;20081;-73
2021/10/05 17:53:47;;;;;;;3.95;3.65;;;;;;;14.06;90.23;99402.84;10382026;28;20455;-73
2021/10/05 17:58:49;;;;;;;4.88;4.47;;;;;;;13.98;91.26;99393.66;10378211;28;20117;-72
2021/10/05 18:03:52;;;;;;;3.78;3.58;;;;;;;13.97;91.38;99382.22;10380722;28;20069;-73
2021/10/05 18:08:54;;;;;;;4.97;4.43;;;;;;;14.23;89.88;99391.34;10393805;28;20053;-72
2021/10/05 18:13:56;;;;;;;5.32;4.93;;;;;;;14.35;89.18;99397.72;10380097;28;20041;-74
2021/10/05 18:18:57;;;;;;;4.78;4.38;;;;;;;14.50;88.73;99407.44;10380512;28;20057;-72
2021/10/05 18:24:02;;;;;;;4.57;4.18;;;;;;;14.14;90.67;99411.22;10378319;28;20093;-73
2021/10/05 18:29:03;;;;;;;5.63;5.22;;;;;;;14.04;92.35;99417.09;10380524;28;20388;-73
2021/10/05 18:34:05;;;;;;;5.25;4.75;;;;;;;13.99;92.58;99427.06;10379715;28;20129;-73
2021/10/05 18:39:07;;;;;;;4.10;3.67;;;;;;;14.32;88.18;99437.53;10380782;28;20049;-73
2021/10/05 18:44:08;;;;;;;4.47;3.20;;;;;;;14.25;87.27;99444.94;10370817;28;20066;-73
2021/10/05 18:49:10;;;;;;;3.03;2.28;;;;;;;14.14;85.49;99450.00;10379107;28;20092;-72
2021/10/05 18:54:12;;;;;;;1.67;1.27;;;;;;;14.51;79.82;99451.44;10371095;28;20042;-72
2021/10/05 18:59:13;;;;;;;1.35;1.25;;;;;;;14.36;79.40;99454.94;10379009;28;20057;-74
2021/10/05 19:04:15;;;;;;;1.20;1.10;;;;;;;14.32;80.68;99451.59;10379627;28;20038;-73
2021/10/05 19:09:16;;;;;;;1.50;1.40;;;;;;;14.21;81.14;99458.44;10386931;28;20415;-72
2021/10/05 19:14:18;;;;;;;1.55;1.40;;;;;;;13.91;85.24;99461.84;10378853;28;20045;-72
2021/10/05 19:19:20;;;;;;;1.45;1.25;;;;;;;13.74;84.30;99475.09;10377967;28;20558;-73
2021/10/05 19:24:22;;;;;;;1.42;1.33;;;;;;;13.57;85.76;99483.94;10369926;28;20499;-72
2021/10/05 19:29:23;;;;;;;1.00;1.00;;;;;;;13.48;85.73;99476.50;10378465;28;20054;-73
2021/10/05 19:34:27;;;;;;;1.42;1.10;;;;;;;13.44;85.51;99481.06;10372009;28;20046;-73
2021/10/05 19:39:28;;;;;;;1.45;1.10;;;;;;;13.52;85.78;99489.44;10372356;28;20049;-73
2021/10/05 19:44:30;;;;;;;1.58;1.08;;;;;;;13.41;86.53;99488.28;10372152;28;20554;-71
2021/10/05 19:49:32;;;;;;;1.77;1.40;;;;;;;13.28;87.53;99488.94;10372821;28;20507;-73
2021/10/05 19:54:35;;;;;;;1.77;1.38;;;;;;;13.25;88.64;99470.63;10377164;28;20041;-73
2021/10/05 19:59:37;;;;;;;1.95;1.48;;;;;;;13.45;87.74;99482.78;10378010;28;20046;-74
2021/10/05 20:04:38;;;;;;;1.77;1.67;;;;;;;13.39;88.51;99491.03;10375715;28;20042;-75
2021/10/05 20:09:40;;;;;;;2.10;1.90;;;;;;;13.37;88.62;99488.47;10378551;28;20491;-74
2021/10/05 20:14:42;;;;;;;1.88;1.77;;;;;;;13.28;89.06;99490.72;10389587;28;20450;-74
2021/10/05 20:19:44;;;;;;;3.88;2.20;;;;;;;13.16;90.51;99493.97;10376660;28;20096;-73
2021/10/05 20:24:46;;;;;;;2.20;2.00;;;;;;;13.20;90.44;99492.88;10377281;28;20499;-73
2021/10/05 20:29:48;;;;;;;2.10;1.90;;;;;;;13.69;87.83;99488.56;10373986;28;20038;-74
2021/10/05 20:34:50;;;;;;;2.42;1.77;;;;;;;13.83;85.89;99508.97;10373151;28;20057;-74
2021/10/05 20:39:51;;;;;;;3.08;1.80;;;;;;;13.42;87.81;99506.72;10376901;28;20052;-73
2021/10/05 20:44:53;;;;;;;2.60;1.77;;;;;;;13.19;90.06;99505.19;10376313;28;20042;-74
2021/10/05 20:49:57;;;;;;;3.55;3.03;;;;;;;13.06;91.67;99498.88;10376592;28;20061;-73
2021/10/05 20:54:59;;;;;;;2.45;2.25;;;;;;;13.40;90.64;99500.63;10376296;28;20451;-74
2021/10/05 21:00:05;;;;;;;3.33;2.33;;;;;;;13.41;90.11;99510.25;10374585;28;20079;-74
2021/10/05 21:05:08;;;;;;;2.47;2.20;;;;;;;13.33;90.53;99500.13;10376313;28;20046;-73
2021/10/05 21:10:09;;;;;;;2.70;2.50;;;;;;;13.35;91.30;99514.06;10368267;28;20107;-73
2021/10/05 21:15:12;;;;;;;3.47;3.17;;;;;;;13.18;92.56;99518.47;10376504;28;20402;-73
2021/10/05 21:20:13;;;;;;;4.60;4.30;;;;;;;13.18;92.84;99521.13;10376812;28;20053;-74
2021/10/05 21:25:15;;;;;;;5.50;5.00;;;;;;;13.06;93.34;99514.69;10384897;28;20454;-74
2021/10/05 21:30:20;;;;;;;4.47;4.07;;;;;;;12.99;94.09;99511.50;10376106;28;20115;-72
2021/10/05 21:35:22;;;;;;;3.80;3.50;;;;;;;13.04;93.25;99520.03;10377304;28;20050;-74
2021/10/05 21:40:25;;;;;;;3.88;3.55;;;;;;;13.21;92.33;99515.69;10376014;28;20038;-73
2021/10/05 21:45:28;;;;;;;5.28;3.65;;;;;;;13.38;90.99;99526.28;10375425;28;20050;-73
2021/10/05 21:50:29;;;;;;;3.15;2.95;;;;;;;13.34;91.72;99516.81;10382752;28;20042;-73
2021/10/05 21:55:31;;;;;;;3.20;3.00;;;;;;;13.19;92.00;99533.38;10383607;28;20076;-73
2021/10/05 22:00:40;;;;;;;3.15;2.85;;;;;;;13.17;92.71;99545.81;10383692;28;20065;-73
2021/10/05 22:05:43;;;;;;;3.13;2.92;;;;;;;13.62;89.65;99556.69;10382837;28;20507;-72
2021/10/05 22:10:45;;;;;;;3.53;3.20;;;;;;;13.41;90.05;99551.66;10382603;28;20038;-73
2021/10/05 22:15:47;;;;;;;2.88;2.67;;;;;;;13.27;90.96;99558.47;10382659;28;20046;-73
2021/10/05 22:20:49;;;;;;;3.67;3.30;;;;;;;13.22;91.55;99552.59;10378828;28;20072;-73
2021/10/05 22:25:51;;;;;;;3.35;2.60;;;;;;;13.23;91.16;99554.28;10378606;28;20038;-72
2021/10/05 22:30:52;;;;;;;2.80;2.60;;;;;;;13.11;91.30;99554.91;10378577;28;20053;-73
2021/10/05 22:35:54;;;;;;;2.45;2.25;;;;;;;13.13;90.48;99548.59;10378079;28;20048;-73
2021/10/05 22:40:56;;;;;;;2.25;2.15;;;;;;;13.19;90.02;99550.06;10381335;28;20511;-74
2021/10/05 22:45:58;;;;;;;2.00;1.90;;;;;;;13.61;86.79;99570.84;10377935;28;20046;-72
2021/10/05 22:51:00;;;;;;;2.53;2.00;;;;;;;13.16;88.54;99557.31;10380165;28;20492;-73
2021/10/05 22:56:02;;;;;;;1.98;1.80;;;;;;;12.96;89.57;99563.56;10379710;28;20491;-73
2021/10/05 23:01:04;;;;;;;2.13;1.98;;;;;;;12.82;90.19;99577.41;10378816;28;20108;-73
2021/10/05 23:06:06;;;;;;;2.47;2.28;;;;;;;12.66;91.07;99574.69;10380390;28;20486;-73
2021/10/05 23:11:08;;;;;;;2.47;2.28;;;;;;;12.50;91.32;99574.53;10379943;28;20045;-72
2021/10/05 23:16:09;;;;;;;2.15;2.05;;;;;;;12.33;91.86;99582.38;10379601;28;20046;-73
2021/10/05 23:21:11;;;;;;;2.38;2.20;;;;;;;12.24;92.46;99595.97;10379269;28;20415;-73